sensor_id;sensor_type;location;lat;lon;timestamp;temperature;humidity
68098;DHT22;54886;47.036;15.466;2022-09-23T00:01:15;8.15;72.48
68098;DHT22;54886;47.036;15.466;2022-09-23T00:03:42;8.10;72.21
68098;DHT22;54886;47.036;15.466;2022-09-23T00:06:16;8.10;72.77
68098;DHT22;54886;47.036;15.466;2022-09-23T00:08:42;8.11;71.99
68098;DHT22;54886;47.036;15.466;2022-09-23T00:11:15;8.08;71.96
68098;DHT22;54886;47.036;15.466;2022-09-23T00:13:42;8.08;71.57
68098;DHT22;54886;47.036;15.466;2022-09-23T00:16:10;8.07;71.78
68098;DHT22;54886;47.036;15.466;2022-09-23T00:18:36;8.03;72.13
68098;DHT22;54886;47.036;15.466;2022-09-23T00:21:07;8.01;71.76
68098;DHT22;54886;47.036;15.466;2022-09-23T00:23:34;7.97;71.39
68098;DHT22;54886;47.036;15.466;2022-09-23T00:26:01;7.96;72.15
68098;DHT22;54886;47.036;15.466;2022-09-23T00:28:28;7.93;71.88
68098;DHT22;54886;47.036;15.466;2022-09-23T00:30:53;7.90;71.61
68098;DHT22;54886;47.036;15.466;2022-09-23T00:33:19;7.87;71.69
68098;DHT22;54886;47.036;15.466;2022-09-23T00:35:44;7.79;73.46
68098;DHT22;54886;47.036;15.466;2022-09-23T00:38:10;7.79;73.06
68098;DHT22;54886;47.036;15.466;2022-09-23T00:40:44;7.79;71.85
68098;DHT22;54886;47.036;15.466;2022-09-23T00:43:13;7.79;72.38
68098;DHT22;54886;47.036;15.466;2022-09-23T00:45:40;7.75;72.76
68098;DHT22;54886;47.036;15.466;2022-09-23T00:48:12;7.69;72.58
68098;DHT22;54886;47.036;15.466;2022-09-23T00:50:41;7.66;72.12
68098;DHT22;54886;47.036;15.466;2022-09-23T00:53:10;7.68;72.92
68098;DHT22;54886;47.036;15.466;2022-09-23T00:56:02;7.63;71.78
68098;DHT22;54886;47.036;15.466;2022-09-23T00:58:30;7.62;72.74
68098;DHT22;54886;47.036;15.466;2022-09-23T01:01:00;7.56;73.63
68098;DHT22;54886;47.036;15.466;2022-09-23T01:03:26;7.51;73.69
68098;DHT22;54886;47.036;15.466;2022-09-23T01:05:52;7.54;72.13
68098;DHT22;54886;47.036;15.466;2022-09-23T01:08:18;7.49;73.19
68098;DHT22;54886;47.036;15.466;2022-09-23T01:16:24;7.45;72.48
68098;DHT22;54886;47.036;15.466;2022-09-23T01:27:08;7.31;71.86
68098;DHT22;54886;47.036;15.466;2022-09-23T01:30:06;7.32;72.13
68098;DHT22;54886;47.036;15.466;2022-09-23T01:38:38;7.21;72.96
68098;DHT22;54886;47.036;15.466;2022-09-23T01:41:14;7.17;72.46
68098;DHT22;54886;47.036;15.466;2022-09-23T01:47:25;7.14;72.07
68098;DHT22;54886;47.036;15.466;2022-09-23T01:49:50;7.07;72.63
68098;DHT22;54886;47.036;15.466;2022-09-23T01:52:26;7.08;72.92
68098;DHT22;54886;47.036;15.466;2022-09-23T01:55:39;7.05;71.89
68098;DHT22;54886;47.036;15.466;2022-09-23T01:57:45;7.01;72.19
68098;DHT22;54886;47.036;15.466;2022-09-23T02:00:16;7.00;72.24
68098;DHT22;54886;47.036;15.466;2022-09-23T02:02:49;6.93;73.63
68098;DHT22;54886;47.036;15.466;2022-09-23T02:07:57;6.89;73.60
68098;DHT22;54886;47.036;15.466;2022-09-23T02:10:32;6.87;72.89
68098;DHT22;54886;47.036;15.466;2022-09-23T02:13:04;6.86;72.50
68098;DHT22;54886;47.036;15.466;2022-09-23T02:15:37;6.82;72.49
68098;DHT22;54886;47.036;15.466;2022-09-23T02:18:13;6.85;72.46
68098;DHT22;54886;47.036;15.466;2022-09-23T02:20:39;6.79;72.65
68098;DHT22;54886;47.036;15.466;2022-09-23T02:23:09;6.79;71.87
68098;DHT22;54886;47.036;15.466;2022-09-23T02:33:59;6.68;72.19
68098;DHT22;54886;47.036;15.466;2022-09-23T02:36:48;6.69;72.79
68098;DHT22;54886;47.036;15.466;2022-09-23T02:39:19;6.65;72.20
68098;DHT22;54886;47.036;15.466;2022-09-23T02:42:01;6.62;72.16
68098;DHT22;54886;47.036;15.466;2022-09-23T02:44:28;6.61;73.01
68098;DHT22;54886;47.036;15.466;2022-09-23T02:46:53;6.61;72.24
68098;DHT22;54886;47.036;15.466;2022-09-23T02:49:25;6.48;73.76
68098;DHT22;54886;47.036;15.466;2022-09-23T02:51:52;6.51;72.52
68098;DHT22;54886;47.036;15.466;2022-09-23T02:54:21;6.48;72.94
68098;DHT22;54886;47.036;15.466;2022-09-23T02:56:46;6.45;72.73
68098;DHT22;54886;47.036;15.466;2022-09-23T02:59:16;6.45;73.36
68098;DHT22;54886;47.036;15.466;2022-09-23T03:04:45;6.45;72.86
68098;DHT22;54886;47.036;15.466;2022-09-23T03:10:08;6.31;74.41
68098;DHT22;54886;47.036;15.466;2022-09-23T03:13:25;6.31;73.34
68098;DHT22;54886;47.036;15.466;2022-09-23T03:15:40;6.27;73.57
68098;DHT22;54886;47.036;15.466;2022-09-23T03:18:43;6.22;74.46
68098;DHT22;54886;47.036;15.466;2022-09-23T03:21:27;6.24;72.91
68098;DHT22;54886;47.036;15.466;2022-09-23T03:23:58;6.18;73.49
68098;DHT22;54886;47.036;15.466;2022-09-23T03:26:29;6.21;72.71
68098;DHT22;54886;47.036;15.466;2022-09-23T03:28:56;6.22;73.30
68098;DHT22;54886;47.036;15.466;2022-09-23T03:31:23;6.17;72.99
68098;DHT22;54886;47.036;15.466;2022-09-23T03:33:53;6.14;72.84
68098;DHT22;54886;47.036;15.466;2022-09-23T03:36:25;6.16;73.35
68098;DHT22;54886;47.036;15.466;2022-09-23T03:39:15;6.11;72.84
68098;DHT22;54886;47.036;15.466;2022-09-23T03:41:46;6.13;72.71
68098;DHT22;54886;47.036;15.466;2022-09-23T03:44:15;6.09;73.54
68098;DHT22;54886;47.036;15.466;2022-09-23T03:46:41;6.06;73.19
68098;DHT22;54886;47.036;15.466;2022-09-23T03:49:16;6.06;72.47
68098;DHT22;54886;47.036;15.466;2022-09-23T03:51:42;6.04;72.40
68098;DHT22;54886;47.036;15.466;2022-09-23T03:54:08;6.04;72.30
68098;DHT22;54886;47.036;15.466;2022-09-23T03:56:34;6.00;72.79
68098;DHT22;54886;47.036;15.466;2022-09-23T03:58:59;6.02;72.99
68098;DHT22;54886;47.036;15.466;2022-09-23T04:01:25;5.99;73.20
68098;DHT22;54886;47.036;15.466;2022-09-23T04:03:51;5.96;72.65
68098;DHT22;54886;47.036;15.466;2022-09-23T04:06:17;5.96;72.56
68098;DHT22;54886;47.036;15.466;2022-09-23T04:08:42;5.96;73.22
68098;DHT22;54886;47.036;15.466;2022-09-23T04:11:08;5.96;73.60
68098;DHT22;54886;47.036;15.466;2022-09-23T04:13:33;5.96;72.99
68098;DHT22;54886;47.036;15.466;2022-09-23T04:15:59;5.96;72.86
68098;DHT22;54886;47.036;15.466;2022-09-23T04:18:24;5.90;73.35
68098;DHT22;54886;47.036;15.466;2022-09-23T04:20:49;5.89;73.10
68098;DHT22;54886;47.036;15.466;2022-09-23T04:23:15;5.89;72.33
68098;DHT22;54886;47.036;15.466;2022-09-23T04:25:47;5.87;72.40
68098;DHT22;54886;47.036;15.466;2022-09-23T04:28:13;5.82;73.00
68098;DHT22;54886;47.036;15.466;2022-09-23T04:30:42;5.83;72.55
68098;DHT22;54886;47.036;15.466;2022-09-23T04:33:12;5.82;72.60
68098;DHT22;54886;47.036;15.466;2022-09-23T04:35:38;5.77;74.00
68098;DHT22;54886;47.036;15.466;2022-09-23T04:38:05;5.73;73.57
68098;DHT22;54886;47.036;15.466;2022-09-23T04:40:31;5.72;73.76
68098;DHT22;54886;47.036;15.466;2022-09-23T04:42:57;5.70;74.00
68098;DHT22;54886;47.036;15.466;2022-09-23T04:45:23;5.70;73.52
68098;DHT22;54886;47.036;15.466;2022-09-23T04:47:48;5.69;73.58
68098;DHT22;54886;47.036;15.466;2022-09-23T04:50:14;5.65;73.24
68098;DHT22;54886;47.036;15.466;2022-09-23T04:52:39;5.68;73.54
68098;DHT22;54886;47.036;15.466;2022-09-23T04:55:05;5.63;73.32
68098;DHT22;54886;47.036;15.466;2022-09-23T04:57:31;5.63;73.01
68098;DHT22;54886;47.036;15.466;2022-09-23T04:59:57;5.62;73.51
68098;DHT22;54886;47.036;15.466;2022-09-23T05:02:23;5.55;74.77
68098;DHT22;54886;47.036;15.466;2022-09-23T05:04:48;5.58;73.54
68098;DHT22;54886;47.036;15.466;2022-09-23T05:07:14;5.60;73.34
68098;DHT22;54886;47.036;15.466;2022-09-23T05:09:40;5.56;74.37
68098;DHT22;54886;47.036;15.466;2022-09-23T05:12:05;5.56;75.59
68098;DHT22;54886;47.036;15.466;2022-09-23T05:14:31;5.56;75.48
68098;DHT22;54886;47.036;15.466;2022-09-23T05:16:56;5.59;73.71
68098;DHT22;54886;47.036;15.466;2022-09-23T05:19:21;5.58;74.55
68098;DHT22;54886;47.036;15.466;2022-09-23T05:21:47;5.54;75.21
68098;DHT22;54886;47.036;15.466;2022-09-23T05:24:12;5.58;74.11
68098;DHT22;54886;47.036;15.466;2022-09-23T05:26:38;5.60;75.26
68098;DHT22;54886;47.036;15.466;2022-09-23T05:29:04;5.60;75.44
68098;DHT22;54886;47.036;15.466;2022-09-23T05:31:30;5.60;75.03
68098;DHT22;54886;47.036;15.466;2022-09-23T05:34:00;5.63;74.14
68098;DHT22;54886;47.036;15.466;2022-09-23T05:36:27;5.63;73.99
68098;DHT22;54886;47.036;15.466;2022-09-23T05:38:53;5.65;75.00
68098;DHT22;54886;47.036;15.466;2022-09-23T05:41:21;5.66;73.78
68098;DHT22;54886;47.036;15.466;2022-09-23T05:43:48;5.66;75.27
68098;DHT22;54886;47.036;15.466;2022-09-23T05:46:16;5.68;74.60
68098;DHT22;54886;47.036;15.466;2022-09-23T05:48:42;5.70;74.51
68098;DHT22;54886;47.036;15.466;2022-09-23T05:51:13;5.73;73.66
68098;DHT22;54886;47.036;15.466;2022-09-23T05:53:39;5.76;73.46
68098;DHT22;54886;47.036;15.466;2022-09-23T05:56:05;5.79;74.22
68098;DHT22;54886;47.036;15.466;2022-09-23T05:58:31;5.82;74.42
68098;DHT22;54886;47.036;15.466;2022-09-23T06:00:57;5.87;73.14
68098;DHT22;54886;47.036;15.466;2022-09-23T06:03:24;5.93;73.70
68098;DHT22;54886;47.036;15.466;2022-09-23T06:05:53;5.94;73.19
68098;DHT22;54886;47.036;15.466;2022-09-23T06:08:19;5.99;75.00
68098;DHT22;54886;47.036;15.466;2022-09-23T06:10:45;6.03;76.02
68098;DHT22;54886;47.036;15.466;2022-09-23T06:13:11;6.10;77.86
68098;DHT22;54886;47.036;15.466;2022-09-23T06:15:37;6.16;74.87
68098;DHT22;54886;47.036;15.466;2022-09-23T06:18:04;6.18;74.52
68098;DHT22;54886;47.036;15.466;2022-09-23T06:20:30;6.24;77.26
68098;DHT22;54886;47.036;15.466;2022-09-23T06:23:04;6.32;76.11
68098;DHT22;54886;47.036;15.466;2022-09-23T06:25:34;6.38;76.89
68098;DHT22;54886;47.036;15.466;2022-09-23T06:28:01;6.46;77.52
68098;DHT22;54886;47.036;15.466;2022-09-23T06:30:27;6.52;76.59
68098;DHT22;54886;47.036;15.466;2022-09-23T06:32:54;6.56;74.41
68098;DHT22;54886;47.036;15.466;2022-09-23T06:35:23;6.62;75.35
68098;DHT22;54886;47.036;15.466;2022-09-23T06:37:49;6.73;77.41
68098;DHT22;54886;47.036;15.466;2022-09-23T06:40:15;6.82;77.90
68098;DHT22;54886;47.036;15.466;2022-09-23T06:42:41;6.86;77.14
68098;DHT22;54886;47.036;15.466;2022-09-23T06:45:08;6.97;76.85
68098;DHT22;54886;47.036;15.466;2022-09-23T06:47:37;7.08;77.80
68098;DHT22;54886;47.036;15.466;2022-09-23T06:50:03;7.14;75.96
68098;DHT22;54886;47.036;15.466;2022-09-23T06:52:29;7.24;75.55
68098;DHT22;54886;47.036;15.466;2022-09-23T06:54:55;7.32;76.28
68098;DHT22;54886;47.036;15.466;2022-09-23T06:57:21;7.44;76.22
68098;DHT22;54886;47.036;15.466;2022-09-23T06:59:46;7.54;76.10
68098;DHT22;54886;47.036;15.466;2022-09-23T07:02:11;7.55;74.17
68098;DHT22;54886;47.036;15.466;2022-09-23T07:04:37;7.61;73.87
68098;DHT22;54886;47.036;15.466;2022-09-23T07:07:02;7.68;74.81
68098;DHT22;54886;47.036;15.466;2022-09-23T07:09:28;7.70;74.49
68098;DHT22;54886;47.036;15.466;2022-09-23T07:11:53;7.75;75.05
68098;DHT22;54886;47.036;15.466;2022-09-23T07:14:19;7.77;73.86
68098;DHT22;54886;47.036;15.466;2022-09-23T07:16:47;7.82;73.54
68098;DHT22;54886;47.036;15.466;2022-09-23T07:19:13;7.87;72.70
68098;DHT22;54886;47.036;15.466;2022-09-23T07:21:38;7.91;73.52
68098;DHT22;54886;47.036;15.466;2022-09-23T07:24:03;7.97;73.82
68098;DHT22;54886;47.036;15.466;2022-09-23T07:26:29;8.03;73.64
68098;DHT22;54886;47.036;15.466;2022-09-23T07:29:00;8.07;73.11
68098;DHT22;54886;47.036;15.466;2022-09-23T07:31:30;8.11;73.24
68098;DHT22;54886;47.036;15.466;2022-09-23T07:33:57;8.30;73.76
68098;DHT22;54886;47.036;15.466;2022-09-23T07:36:23;8.40;73.53
68098;DHT22;54886;47.036;15.466;2022-09-23T07:38:48;8.46;74.40
68098;DHT22;54886;47.036;15.466;2022-09-23T07:41:17;8.51;72.97
68098;DHT22;54886;47.036;15.466;2022-09-23T07:43:43;8.56;72.76
68098;DHT22;54886;47.036;15.466;2022-09-23T07:46:11;8.58;72.28
68098;DHT22;54886;47.036;15.466;2022-09-23T07:48:38;8.65;72.16
68098;DHT22;54886;47.036;15.466;2022-09-23T07:53:46;8.75;72.47
68098;DHT22;54886;47.036;15.466;2022-09-23T07:56:12;8.80;71.90
68098;DHT22;54886;47.036;15.466;2022-09-23T07:58:38;8.87;71.97
68098;DHT22;54886;47.036;15.466;2022-09-23T08:01:05;8.93;72.10
68098;DHT22;54886;47.036;15.466;2022-09-23T08:03:31;9.00;72.81
68098;DHT22;54886;47.036;15.466;2022-09-23T08:06:16;9.08;73.23
68098;DHT22;54886;47.036;15.466;2022-09-23T08:08:42;9.21;71.99
68098;DHT22;54886;47.036;15.466;2022-09-23T08:11:09;9.25;71.65
68098;DHT22;54886;47.036;15.466;2022-09-23T08:13:35;9.34;72.76
68098;DHT22;54886;47.036;15.466;2022-09-23T08:16:01;9.46;73.20
68098;DHT22;54886;47.036;15.466;2022-09-23T08:18:26;9.58;71.45
68098;DHT22;54886;47.036;15.466;2022-09-23T08:20:52;9.66;71.45
68098;DHT22;54886;47.036;15.466;2022-09-23T08:23:18;9.82;71.98
68098;DHT22;54886;47.036;15.466;2022-09-23T08:25:45;9.83;72.03
68098;DHT22;54886;47.036;15.466;2022-09-23T08:28:15;9.89;70.41
68098;DHT22;54886;47.036;15.466;2022-09-23T08:30:43;9.97;69.72
68098;DHT22;54886;47.036;15.466;2022-09-23T08:33:10;10.04;68.58
68098;DHT22;54886;47.036;15.466;2022-09-23T08:35:36;10.10;69.52
68098;DHT22;54886;47.036;15.466;2022-09-23T08:38:01;10.17;69.40
68098;DHT22;54886;47.036;15.466;2022-09-23T08:40:27;10.17;68.86
68098;DHT22;54886;47.036;15.466;2022-09-23T08:42:53;10.22;68.92
68098;DHT22;54886;47.036;15.466;2022-09-23T08:45:27;10.37;69.43
68098;DHT22;54886;47.036;15.466;2022-09-23T08:47:59;10.41;70.49
68098;DHT22;54886;47.036;15.466;2022-09-23T08:50:35;10.51;70.40
68098;DHT22;54886;47.036;15.466;2022-09-23T08:53:04;10.55;70.34
68098;DHT22;54886;47.036;15.466;2022-09-23T08:55:34;10.68;70.43
68098;DHT22;54886;47.036;15.466;2022-09-23T09:00:40;10.75;69.35
68098;DHT22;54886;47.036;15.466;2022-09-23T09:03:29;10.83;69.36
68098;DHT22;54886;47.036;15.466;2022-09-23T09:05:56;10.90;68.69
68098;DHT22;54886;47.036;15.466;2022-09-23T09:08:31;10.97;68.79
68098;DHT22;54886;47.036;15.466;2022-09-23T09:10:57;11.06;68.12
68098;DHT22;54886;47.036;15.466;2022-09-23T09:13:30;11.08;68.61
68098;DHT22;54886;47.036;15.466;2022-09-23T09:18:43;11.24;69.87
68098;DHT22;54886;47.036;15.466;2022-09-23T09:21:12;11.34;68.05
68098;DHT22;54886;47.036;15.466;2022-09-23T09:23:55;11.46;68.33
68098;DHT22;54886;47.036;15.466;2022-09-23T09:26:25;11.52;69.49
68098;DHT22;54886;47.036;15.466;2022-09-23T09:34:42;11.77;67.64
68098;DHT22;54886;47.036;15.466;2022-09-23T09:37:10;11.91;66.72
68098;DHT22;54886;47.036;15.466;2022-09-23T09:39:37;11.93;67.07
68098;DHT22;54886;47.036;15.466;2022-09-23T09:42:04;12.00;67.46
68098;DHT22;54886;47.036;15.466;2022-09-23T09:44:40;11.98;67.60
68098;DHT22;54886;47.036;15.466;2022-09-23T09:49:55;12.20;66.89
68098;DHT22;54886;47.036;15.466;2022-09-23T09:52:26;12.30;67.29
68098;DHT22;54886;47.036;15.466;2022-09-23T09:54:54;12.34;67.13
68098;DHT22;54886;47.036;15.466;2022-09-23T09:57:38;12.38;67.55
68098;DHT22;54886;47.036;15.466;2022-09-23T10:02:53;12.46;65.96
68098;DHT22;54886;47.036;15.466;2022-09-23T10:05:25;12.59;66.56
68098;DHT22;54886;47.036;15.466;2022-09-23T10:07:51;12.73;67.09
68098;DHT22;54886;47.036;15.466;2022-09-23T10:10:20;12.76;66.40
68098;DHT22;54886;47.036;15.466;2022-09-23T10:12:46;12.85;64.71
68098;DHT22;54886;47.036;15.466;2022-09-23T10:17:50;12.99;64.91
68098;DHT22;54886;47.036;15.466;2022-09-23T10:20:16;13.07;64.94
68098;DHT22;54886;47.036;15.466;2022-09-23T10:22:42;13.04;63.95
68098;DHT22;54886;47.036;15.466;2022-09-23T10:25:15;13.04;63.35
68098;DHT22;54886;47.036;15.466;2022-09-23T10:27:43;13.08;62.83
68098;DHT22;54886;47.036;15.466;2022-09-23T10:30:24;13.20;63.52
68098;DHT22;54886;47.036;15.466;2022-09-23T10:32:51;13.25;63.02
68098;DHT22;54886;47.036;15.466;2022-09-23T10:35:20;13.28;62.08
68098;DHT22;54886;47.036;15.466;2022-09-23T10:37:55;13.32;61.12
68098;DHT22;54886;47.036;15.466;2022-09-23T10:43:25;13.47;62.52
68098;DHT22;54886;47.036;15.466;2022-09-23T10:46:27;13.55;60.01
68098;DHT22;54886;47.036;15.466;2022-09-23T11:11:45;14.04;58.08
68098;DHT22;54886;47.036;15.466;2022-09-23T11:14:50;14.10;58.58
68098;DHT22;54886;47.036;15.466;2022-09-23T11:20:22;14.25;58.27
68098;DHT22;54886;47.036;15.466;2022-09-23T11:23:14;14.30;58.32
68098;DHT22;54886;47.036;15.466;2022-09-23T11:36:04;14.49;56.98
68098;DHT22;54886;47.036;15.466;2022-09-23T11:38:40;14.54;55.85
68098;DHT22;54886;47.036;15.466;2022-09-23T11:41:14;14.58;57.75
68098;DHT22;54886;47.036;15.466;2022-09-23T11:43:42;14.61;57.63
68098;DHT22;54886;47.036;15.466;2022-09-23T11:46:38;14.71;57.56
68098;DHT22;54886;47.036;15.466;2022-09-23T11:49:29;14.78;54.76
68098;DHT22;54886;47.036;15.466;2022-09-23T11:52:05;14.92;53.12
68098;DHT22;54886;47.036;15.466;2022-09-23T11:54:47;14.93;53.09
68098;DHT22;54886;47.036;15.466;2022-09-23T12:00:04;15.03;52.29
68098;DHT22;54886;47.036;15.466;2022-09-23T12:05:47;15.04;53.98
68098;DHT22;54886;47.036;15.466;2022-09-23T12:08:27;15.06;55.07
68098;DHT22;54886;47.036;15.466;2022-09-23T12:11:12;15.07;53.54
68098;DHT22;54886;47.036;15.466;2022-09-23T12:24:25;15.26;53.80
68098;DHT22;54886;47.036;15.466;2022-09-23T12:26:54;15.23;53.17
68098;DHT22;54886;47.036;15.466;2022-09-23T12:29:23;15.23;53.53
68098;DHT22;54886;47.036;15.466;2022-09-23T12:31:50;15.20;54.31
68098;DHT22;54886;47.036;15.466;2022-09-23T12:34:28;15.32;51.21
68098;DHT22;54886;47.036;15.466;2022-09-23T12:37:02;15.30;51.54
68098;DHT22;54886;47.036;15.466;2022-09-23T12:39:38;15.37;51.39
68098;DHT22;54886;47.036;15.466;2022-09-23T12:42:05;15.41;53.07
68098;DHT22;54886;47.036;15.466;2022-09-23T12:44:41;15.47;53.00
68098;DHT22;54886;47.036;15.466;2022-09-23T12:49:40;15.55;51.08
68098;DHT22;54886;47.036;15.466;2022-09-23T12:54:35;15.59;52.47
68098;DHT22;54886;47.036;15.466;2022-09-23T12:57:02;15.62;52.06
68098;DHT22;54886;47.036;15.466;2022-09-23T12:59:31;15.69;51.34
68098;DHT22;54886;47.036;15.466;2022-09-23T13:02:17;15.76;51.80
68098;DHT22;54886;47.036;15.466;2022-09-23T13:04:55;15.79;51.35
68098;DHT22;54886;47.036;15.466;2022-09-23T13:07:44;15.78;51.08
68098;DHT22;54886;47.036;15.466;2022-09-23T13:10:57;15.70;51.38
68098;DHT22;54886;47.036;15.466;2022-09-23T13:13:04;15.73;52.13
68098;DHT22;54886;47.036;15.466;2022-09-23T13:15:33;15.82;52.31
68098;DHT22;54886;47.036;15.466;2022-09-23T13:21:17;15.90;49.74
68098;DHT22;54886;47.036;15.466;2022-09-23T13:26:55;15.90;49.74
68098;DHT22;54886;47.036;15.466;2022-09-23T13:29:52;15.86;51.24
68098;DHT22;54886;47.036;15.466;2022-09-23T13:32:21;15.93;51.25
68098;DHT22;54886;47.036;15.466;2022-09-23T13:34:55;15.93;49.49
68098;DHT22;54886;47.036;15.466;2022-09-23T13:37:40;15.93;50.95
68098;DHT22;54886;47.036;15.466;2022-09-23T13:40:22;16.02;49.82
68098;DHT22;54886;47.036;15.466;2022-09-23T13:42:57;15.99;50.25
68098;DHT22;54886;47.036;15.466;2022-09-23T13:45:24;16.00;50.37
68098;DHT22;54886;47.036;15.466;2022-09-23T13:47:52;16.06;49.90
68098;DHT22;54886;47.036;15.466;2022-09-23T13:50:21;16.09;50.58
68098;DHT22;54886;47.036;15.466;2022-09-23T13:52:55;16.12;49.91
68098;DHT22;54886;47.036;15.466;2022-09-23T13:57:59;16.17;49.90
68098;DHT22;54886;47.036;15.466;2022-09-23T14:00:25;16.21;48.81
68098;DHT22;54886;47.036;15.466;2022-09-23T14:02:50;16.21;49.02
68098;DHT22;54886;47.036;15.466;2022-09-23T14:05:24;16.21;50.47
68098;DHT22;54886;47.036;15.466;2022-09-23T14:07:51;16.21;51.89
68098;DHT22;54886;47.036;15.466;2022-09-23T14:10:20;16.23;49.80
68098;DHT22;54886;47.036;15.466;2022-09-23T14:12:47;16.24;49.92
68098;DHT22;54886;47.036;15.466;2022-09-23T14:15:14;16.25;49.22
68098;DHT22;54886;47.036;15.466;2022-09-23T14:17:58;16.24;50.66
68098;DHT22;54886;47.036;15.466;2022-09-23T14:20:24;16.24;49.04
68098;DHT22;54886;47.036;15.466;2022-09-23T14:23:08;16.25;50.23
68098;DHT22;54886;47.036;15.466;2022-09-23T14:25:35;16.27;49.77
68098;DHT22;54886;47.036;15.466;2022-09-23T14:28:00;16.28;48.16
68098;DHT22;54886;47.036;15.466;2022-09-23T14:30:26;16.28;48.64
68098;DHT22;54886;47.036;15.466;2022-09-23T14:32:52;16.27;49.54
68098;DHT22;54886;47.036;15.466;2022-09-23T14:35:18;16.27;49.68
68098;DHT22;54886;47.036;15.466;2022-09-23T14:37:45;16.30;49.18
68098;DHT22;54886;47.036;15.466;2022-09-23T14:40:36;16.31;49.99
68098;DHT22;54886;47.036;15.466;2022-09-23T14:43:18;16.34;47.50
68098;DHT22;54886;47.036;15.466;2022-09-23T14:45:50;16.32;48.17
68098;DHT22;54886;47.036;15.466;2022-09-23T14:48:22;16.32;48.41
68098;DHT22;54886;47.036;15.466;2022-09-23T14:50:59;16.35;48.88
68098;DHT22;54886;47.036;15.466;2022-09-23T14:58:57;16.38;48.74
68098;DHT22;54886;47.036;15.466;2022-09-23T15:03:56;16.37;49.52
68098;DHT22;54886;47.036;15.466;2022-09-23T15:06:22;16.34;50.35
68098;DHT22;54886;47.036;15.466;2022-09-23T15:08:50;16.34;49.91
68098;DHT22;54886;47.036;15.466;2022-09-23T15:11:15;16.32;51.31
68098;DHT22;54886;47.036;15.466;2022-09-23T15:13:42;16.32;51.58
68098;DHT22;54886;47.036;15.466;2022-09-23T15:16:12;16.28;51.37
68098;DHT22;54886;47.036;15.466;2022-09-23T15:18:42;16.27;49.62
68098;DHT22;54886;47.036;15.466;2022-09-23T15:21:11;16.27;50.51
68098;DHT22;54886;47.036;15.466;2022-09-23T15:26:22;16.23;50.82
68098;DHT22;54886;47.036;15.466;2022-09-23T15:28:49;16.24;50.82
68098;DHT22;54886;47.036;15.466;2022-09-23T15:31:20;16.23;50.92
68098;DHT22;54886;47.036;15.466;2022-09-23T15:33:48;16.18;51.66
68098;DHT22;54886;47.036;15.466;2022-09-23T15:36:17;16.17;51.58
68098;DHT22;54886;47.036;15.466;2022-09-23T15:38:43;16.16;52.78
68098;DHT22;54886;47.036;15.466;2022-09-23T15:41:09;16.16;51.43
68098;DHT22;54886;47.036;15.466;2022-09-23T15:43:34;16.12;51.90
68098;DHT22;54886;47.036;15.466;2022-09-23T15:46:07;16.12;52.42
68098;DHT22;54886;47.036;15.466;2022-09-23T15:48:42;16.09;52.61
68098;DHT22;54886;47.036;15.466;2022-09-23T15:51:11;16.07;52.92
68098;DHT22;54886;47.036;15.466;2022-09-23T15:53:38;16.03;53.17
68098;DHT22;54886;47.036;15.466;2022-09-23T15:56:04;15.97;53.48
68098;DHT22;54886;47.036;15.466;2022-09-23T15:58:31;15.96;52.65
68098;DHT22;54886;47.036;15.466;2022-09-23T16:00:57;15.93;53.03
68098;DHT22;54886;47.036;15.466;2022-09-23T16:03:25;15.92;52.92
68098;DHT22;54886;47.036;15.466;2022-09-23T16:05:53;15.87;53.34
68098;DHT22;54886;47.036;15.466;2022-09-23T16:08:20;15.86;54.01
68098;DHT22;54886;47.036;15.466;2022-09-23T16:10:49;15.83;54.59
68098;DHT22;54886;47.036;15.466;2022-09-23T16:13:14;15.76;54.71
68098;DHT22;54886;47.036;15.466;2022-09-23T16:15:40;15.79;54.62
68098;DHT22;54886;47.036;15.466;2022-09-23T16:18:06;15.76;54.56
68098;DHT22;54886;47.036;15.466;2022-09-23T16:20:36;15.73;54.58
68098;DHT22;54886;47.036;15.466;2022-09-23T16:23:06;15.72;54.75
68098;DHT22;54886;47.036;15.466;2022-09-23T16:25:33;15.70;55.50
68098;DHT22;54886;47.036;15.466;2022-09-23T16:28:01;15.66;56.43
68098;DHT22;54886;47.036;15.466;2022-09-23T16:30:28;15.63;56.91
68098;DHT22;54886;47.036;15.466;2022-09-23T16:32:54;15.58;56.83
68098;DHT22;54886;47.036;15.466;2022-09-23T16:35:21;15.54;56.37
68098;DHT22;54886;47.036;15.466;2022-09-23T16:37:47;15.50;56.41
68098;DHT22;54886;47.036;15.466;2022-09-23T16:40:15;15.51;57.86
68098;DHT22;54886;47.036;15.466;2022-09-23T16:42:44;15.45;57.99
68098;DHT22;54886;47.036;15.466;2022-09-23T16:45:20;15.45;58.35
68098;DHT22;54886;47.036;15.466;2022-09-23T16:47:49;15.35;58.43
68098;DHT22;54886;47.036;15.466;2022-09-23T16:50:19;15.34;58.89
68098;DHT22;54886;47.036;15.466;2022-09-23T16:52:46;15.31;58.74
68098;DHT22;54886;47.036;15.466;2022-09-23T16:55:13;15.28;58.68
68098;DHT22;54886;47.036;15.466;2022-09-23T16:57:40;15.24;58.87
68098;DHT22;54886;47.036;15.466;2022-09-23T17:00:12;15.20;59.38
68098;DHT22;54886;47.036;15.466;2022-09-23T17:02:57;15.19;59.32
68098;DHT22;54886;47.036;15.466;2022-09-23T17:05:41;15.11;59.57
68098;DHT22;54886;47.036;15.466;2022-09-23T17:08:09;15.08;59.58
68098;DHT22;54886;47.036;15.466;2022-09-23T17:10:38;15.04;59.66
68098;DHT22;54886;47.036;15.466;2022-09-23T17:13:03;14.97;59.50
68098;DHT22;54886;47.036;15.466;2022-09-23T17:15:29;14.92;59.61
68098;DHT22;54886;47.036;15.466;2022-09-23T17:17:54;14.90;59.92
68098;DHT22;54886;47.036;15.466;2022-09-23T17:20:20;14.87;60.18
68098;DHT22;54886;47.036;15.466;2022-09-23T17:22:45;14.82;60.09
68098;DHT22;54886;47.036;15.466;2022-09-23T17:25:10;14.78;60.63
68098;DHT22;54886;47.036;15.466;2022-09-23T17:27:36;14.69;60.79
68098;DHT22;54886;47.036;15.466;2022-09-23T17:30:03;14.67;61.39
68098;DHT22;54886;47.036;15.466;2022-09-23T17:32:29;14.59;61.49
68098;DHT22;54886;47.036;15.466;2022-09-23T17:34:55;14.57;61.77
68098;DHT22;54886;47.036;15.466;2022-09-23T17:37:20;14.55;61.91
68098;DHT22;54886;47.036;15.466;2022-09-23T17:39:45;14.49;62.14
68098;DHT22;54886;47.036;15.466;2022-09-23T17:42:11;14.45;62.08
68098;DHT22;54886;47.036;15.466;2022-09-23T17:44:37;14.44;61.94
68098;DHT22;54886;47.036;15.466;2022-09-23T17:47:02;14.38;62.01
68098;DHT22;54886;47.036;15.466;2022-09-23T17:49:30;14.32;62.02
68098;DHT22;54886;47.036;15.466;2022-09-23T17:52:02;14.28;62.17
68098;DHT22;54886;47.036;15.466;2022-09-23T17:54:31;14.20;62.62
68098;DHT22;54886;47.036;15.466;2022-09-23T17:57:00;14.17;62.57
68098;DHT22;54886;47.036;15.466;2022-09-23T17:59:25;14.12;63.02
68098;DHT22;54886;47.036;15.466;2022-09-23T18:01:51;14.09;62.97